Time;durP1;ratioP1;P1;durP2;ratioP2;P2;SDS_P1;SDS_P2;PMS_P1;PMS_P2;Temp;Humidity;BMP_temperature;BMP_pressure;BME280_temperature;BME280_humidity;BME280_pressure;Samples;Min_cycle;Max_cycle;Signal;HPM_P1;HPM_P2
2022/03/08 00:01:44;;;;;;;12.73;8.10;;;;;;;1.12;59.92;102348.59;5026083;28;20259;-70
2022/03/08 00:04:09;;;;;;;17.83;8.07;;;;;;;1.11;60.04;102346.06;5025619;28;20432;-69
2022/03/08 00:06:34;;;;;;;14.73;8.20;;;;;;;1.04;60.27;102340.28;5025667;28;20105;-69
2022/03/08 00:08:59;;;;;;;13.17;8.03;;;;;;;1.04;60.28;102334.19;5024896;28;20539;-69
2022/03/08 00:11:25;;;;;;;12.20;8.00;;;;;;;1.00;60.45;102333.50;5025647;28;20033;-69
2022/03/08 00:13:51;;;;;;;12.10;7.93;;;;;;;1.02;60.55;102338.66;5025862;28;20034;-69
2022/03/08 00:16:17;;;;;;;11.73;7.73;;;;;;;1.01;60.43;102334.34;5025553;28;20037;-69
2022/03/08 00:18:44;;;;;;;11.87;8.33;;;;;;;1.02;60.46;102329.03;5024570;28;20029;-69
2022/03/08 00:21:10;;;;;;;13.23;8.30;;;;;;;0.93;60.68;102317.25;5025960;28;20036;-69
2022/03/08 00:23:35;;;;;;;13.50;8.50;;;;;;;1.05;60.51;102330.66;5023306;28;20037;-69
2022/03/08 00:26:01;;;;;;;12.67;7.90;;;;;;;1.08;60.46;102327.88;5025909;28;20381;-69
2022/03/08 00:28:27;;;;;;;12.90;7.77;;;;;;;0.97;60.44;102312.72;5024509;28;20029;-69
2022/03/08 00:30:52;;;;;;;10.03;7.70;;;;;;;1.05;60.44;102326.28;5024037;28;20397;-69
2022/03/08 00:33:17;;;;;;;13.43;7.87;;;;;;;1.04;60.29;102318.50;5026383;28;20590;-69
2022/03/08 00:35:43;;;;;;;14.43;7.57;;;;;;;0.96;60.20;102307.56;5025063;28;20029;-68
2022/03/08 00:38:08;;;;;;;14.07;8.30;;;;;;;1.06;60.17;102314.03;5025745;28;20104;-69
2022/03/08 00:40:34;;;;;;;11.03;7.67;;;;;;;0.99;60.08;102305.63;5024613;28;20481;-69
2022/03/08 00:42:59;;;;;;;14.20;8.27;;;;;;;1.06;59.96;102322.72;5025540;28;20036;-69
2022/03/08 00:45:25;;;;;;;11.27;7.87;;;;;;;1.08;59.88;102326.13;5022395;28;20842;-68
2022/03/08 00:47:50;;;;;;;14.73;8.47;;;;;;;1.12;59.70;102321.59;5028891;28;20037;-69
2022/03/08 00:50:22;;;;;;;14.77;8.50;;;;;;;1.13;59.63;102318.03;5028679;28;20057;-70
2022/03/08 00:52:48;;;;;;;13.07;7.90;;;;;;;1.14;59.24;102309.28;5029476;28;20123;-70
2022/03/08 00:55:15;;;;;;;12.43;7.50;;;;;;;1.11;59.33;102312.88;5028515;28;20025;-69
2022/03/08 00:57:41;;;;;;;10.73;7.17;;;;;;;1.18;59.23;102316.09;5028645;28;20028;-69
2022/03/08 01:00:09;;;;;;;9.73;6.70;;;;;;;1.16;59.11;102321.41;5028224;28;20028;-70
2022/03/08 01:02:34;;;;;;;11.77;7.27;;;;;;;1.09;59.24;102311.28;5029081;28;20389;-69
2022/03/08 01:05:00;;;;;;;9.83;7.17;;;;;;;1.05;59.58;102315.81;5029120;28;20251;-70
2022/03/08 01:07:25;;;;;;;10.40;6.93;;;;;;;1.07;59.25;102315.72;5028892;28;20038;-69
2022/03/08 01:09:51;;;;;;;12.73;7.63;;;;;;;0.95;59.34;102311.09;5028228;28;20044;-69
2022/03/08 01:12:16;;;;;;;12.13;7.43;;;;;;;1.01;59.43;102316.03;5028384;28;20626;-69
2022/03/08 01:14:41;;;;;;;9.63;7.23;;;;;;;0.97;59.49;102317.94;5027891;28;20516;-68
2022/03/08 01:17:06;;;;;;;13.47;7.70;;;;;;;0.91;59.60;102313.00;5028317;28;20040;-69
2022/03/08 01:19:32;;;;;;;13.00;7.53;;;;;;;0.94;59.50;102320.72;5027927;28;20036;-69
2022/03/08 01:21:57;;;;;;;12.93;7.77;;;;;;;0.89;59.75;102313.09;5027449;28;20347;-69
2022/03/08 01:24:22;;;;;;;13.70;7.23;;;;;;;0.88;59.76;102313.16;5028339;28;20044;-69
2022/03/08 01:26:48;;;;;;;11.60;7.13;;;;;;;0.85;59.75;102305.44;5024003;28;20048;-69
2022/03/08 01:29:13;;;;;;;11.13;7.60;;;;;;;0.76;59.83;102284.94;5027396;28;20396;-69
2022/03/08 01:31:38;;;;;;;13.20;7.27;;;;;;;0.85;59.76;102295.81;5028911;28;20184;-69
2022/03/08 01:34:04;;;;;;;12.93;7.00;;;;;;;0.83;59.80;102294.19;5026685;28;20025;-69
2022/03/08 01:36:30;;;;;;;12.13;7.37;;;;;;;0.76;59.68;102283.19;5028528;28;20092;-69
2022/03/08 01:38:55;;;;;;;13.20;7.03;;;;;;;0.82;59.71;102285.50;5027759;28;20057;-69
2022/03/08 01:41:20;;;;;;;10.90;7.17;;;;;;;0.85;59.35;102290.59;5027909;28;20108;-69
2022/03/08 01:43:47;;;;;;;11.70;7.33;;;;;;;0.87;59.50;102280.09;5027909;28;20029;-69
2022/03/08 01:46:14;;;;;;;12.47;7.43;;;;;;;0.80;59.30;102268.19;5026934;28;20099;-69
2022/03/08 01:48:40;;;;;;;17.10;9.00;;;;;;;0.88;59.15;102276.53;5027491;28;20112;-69
2022/03/08 01:51:06;;;;;;;13.17;8.17;;;;;;;0.88;59.25;102273.94;5026349;28;20144;-70
2022/03/08 01:53:32;;;;;;;13.23;8.20;;;;;;;0.89;59.27;102276.47;5028454;28;20481;-69
2022/03/08 01:55:57;;;;;;;16.90;7.90;;;;;;;0.88;59.21;102273.94;5027519;28;20029;-69
2022/03/08 01:58:23;;;;;;;14.50;8.47;;;;;;;0.88;59.12;102268.69;5027673;28;20547;-69
2022/03/08 02:00:48;;;;;;;11.30;7.97;;;;;;;0.77;59.11;102250.03;5027138;28;20032;-69
2022/03/08 02:03:13;;;;;;;11.60;8.00;;;;;;;0.85;58.90;102256.59;5028112;28;20029;-69
2022/03/08 02:05:39;;;;;;;12.90;7.37;;;;;;;0.82;59.16;102261.13;5027699;28;20021;-69
2022/03/08 02:08:04;;;;;;;10.53;7.30;;;;;;;0.81;59.26;102255.03;5027470;28;20684;-69
2022/03/08 02:10:29;;;;;;;12.47;8.10;;;;;;;0.79;59.23;102261.28;5026982;28;20040;-71
2022/03/08 02:12:55;;;;;;;14.13;7.60;;;;;;;0.78;59.27;102249.13;5026640;28;20039;-69
2022/03/08 02:15:20;;;;;;;12.70;8.00;;;;;;;0.77;59.41;102256.13;5028113;28;20037;-70
2022/03/08 02:17:46;;;;;;;13.50;7.23;;;;;;;0.77;59.18;102256.13;5027652;28;20021;-70
2022/03/08 02:20:13;;;;;;;10.90;7.73;;;;;;;0.76;59.19;102245.72;5025901;28;20025;-69
2022/03/08 02:22:40;;;;;;;13.73;8.07;;;;;;;0.74;59.23;102248.41;5027978;28;20477;-69
2022/03/08 02:25:06;;;;;;;12.03;7.80;;;;;;;0.73;59.18;102245.88;5026725;28;20107;-69
2022/03/08 02:27:31;;;;;;;13.90;7.30;;;;;;;0.65;59.24;102237.56;5027577;28;20451;-69
2022/03/08 02:29:57;;;;;;;11.53;8.10;;;;;;;0.68;59.28;102238.25;5026118;28;20463;-70
2022/03/08 02:32:23;;;;;;;12.97;8.07;;;;;;;0.67;59.31;102235.72;5026362;28;20048;-69
2022/03/08 02:34:48;;;;;;;11.97;8.00;;;;;;;0.69;59.32;102228.66;5027048;28;20048;-71
2022/03/08 02:37:13;;;;;;;9.87;7.37;;;;;;;0.68;59.40;102227.81;5027822;28;20037;-69
2022/03/08 02:39:39;;;;;;;13.27;7.90;;;;;;;0.67;59.31;102222.66;5027319;28;20036;-69
2022/03/08 02:42:06;;;;;;;10.47;7.77;;;;;;;0.64;59.29;102226.25;5019944;28;20045;-69
2022/03/08 02:44:32;;;;;;;15.33;8.27;;;;;;;0.66;59.33;102224.41;5028133;28;20116;-69
2022/03/08 02:47:03;;;;;;;12.47;8.03;;;;;;;0.67;59.24;102227.88;5028342;28;20096;-69
2022/03/08 02:49:29;;;;;;;12.23;7.63;;;;;;;0.70;59.13;102227.72;5026427;28;20228;-69
2022/03/08 02:51:56;;;;;;;12.73;8.27;;;;;;;0.69;59.15;102226.88;5024757;28;20037;-69
2022/03/08 02:54:21;;;;;;;12.70;8.07;;;;;;;0.68;59.18;102221.72;5032422;28;20396;-69
2022/03/08 02:56:46;;;;;;;12.53;8.07;;;;;;;0.67;59.13;102220.03;5027580;28;20563;-69
2022/03/08 02:59:18;;;;;;;12.07;8.30;;;;;;;0.67;59.17;102212.19;5026801;28;20035;-69
2022/03/08 03:01:43;;;;;;;10.97;7.60;;;;;;;0.68;59.14;102208.66;5027745;28;20029;-69
2022/03/08 03:04:09;;;;;;;10.97;7.80;;;;;;;0.67;59.03;102210.44;5027443;28;20041;-69
2022/03/08 03:06:35;;;;;;;11.23;7.70;;;;;;;0.63;58.99;102192.34;5026857;28;20024;-71
2022/03/08 03:09:01;;;;;;;12.10;8.50;;;;;;;0.70;58.85;102204.19;5024948;28;20075;-69
2022/03/08 03:11:26;;;;;;;14.13;8.13;;;;;;;0.61;58.66;102182.81;5027229;28;20025;-69
2022/03/08 03:13:51;;;;;;;11.00;7.50;;;;;;;0.71;59.02;102193.66;5026709;28;20053;-69
2022/03/08 03:16:16;;;;;;;12.07;8.27;;;;;;;0.64;58.56;102173.97;5027920;28;20029;-69
2022/03/08 03:18:42;;;;;;;10.47;7.43;;;;;;;0.72;58.61;102178.81;5027075;28;20025;-70
2022/03/08 03:21:07;;;;;;;11.00;7.93;;;;;;;0.70;58.29;102164.97;5027539;28;20154;-69
2022/03/08 03:23:32;;;;;;;13.97;7.83;;;;;;;0.75;58.41;102171.69;5027624;28;20037;-69
2022/03/08 03:25:58;;;;;;;14.47;7.70;;;;;;;0.72;58.44;102169.22;5020261;28;20021;-69
2022/03/08 03:28:23;;;;;;;10.93;8.00;;;;;;;0.71;58.36;102164.91;5024447;28;20064;-69
2022/03/08 03:30:48;;;;;;;14.83;8.23;;;;;;;0.70;58.34;102172.84;5021439;28;20088;-69
2022/03/08 03:33:13;;;;;;;10.50;7.33;;;;;;;0.63;58.38;102163.59;5026186;28;20485;-69
2022/03/08 03:35:39;;;;;;;14.73;8.57;;;;;;;0.56;58.53;102161.25;5026971;28;20053;-69
2022/03/08 03:38:04;;;;;;;14.10;8.40;;;;;;;0.57;58.52;102173.41;5026810;28;20030;-70
2022/03/08 03:40:29;;;;;;;14.77;8.73;;;;;;;0.49;58.46;102166.84;5026409;28;20112;-70
2022/03/08 03:42:54;;;;;;;15.43;9.00;;;;;;;0.54;58.91;102175.31;5026635;28;20060;-69
2022/03/08 03:45:20;;;;;;;12.10;8.50;;;;;;;0.52;58.77;102179.78;5025326;28;20040;-69
2022/03/08 03:47:45;;;;;;;11.10;8.13;;;;;;;0.47;58.91;102181.75;5024627;28;20245;-69
2022/03/08 03:50:10;;;;;;;9.97;7.60;;;;;;;0.41;59.07;102177.69;5022515;28;20095;-70
2022/03/08 03:52:36;;;;;;;13.77;8.17;;;;;;;0.32;59.24;102182.50;5025885;28;20025;-70
2022/03/08 03:55:03;;;;;;;12.17;8.20;;;;;;;0.27;59.35;102186.16;5025369;28;20032;-69
2022/03/08 03:57:28;;;;;;;11.03;8.07;;;;;;;0.23;59.49;102194.19;5026339;28;20513;-70
2022/03/08 03:59:53;;;;;;;11.43;8.50;;;;;;;0.22;59.50;102187.28;5025420;28;20083;-69
2022/03/08 04:02:19;;;;;;;11.30;8.33;;;;;;;0.19;59.83;102183.06;5025719;28;20048;-69
2022/03/08 04:04:44;;;;;;;10.83;7.80;;;;;;;0.06;59.92;102160.19;5026238;28;20096;-69
2022/03/08 04:07:09;;;;;;;10.23;7.77;;;;;;;0.18;59.83;102180.50;5025369;28;20400;-70
2022/03/08 04:09:35;;;;;;;12.53;8.00;;;;;;;0.18;59.90;102177.91;5023783;28;20435;-70
2022/03/08 04:12:00;;;;;;;13.23;8.33;;;;;;;0.01;60.05;102160.41;5025808;28;20041;-69
2022/03/08 04:14:25;;;;;;;11.77;8.20;;;;;;;0.14;60.16;102174.59;5024335;28;20493;-69
2022/03/08 04:16:51;;;;;;;13.10;8.87;;;;;;;0.10;60.31;102173.03;5026063;28;20032;-69
2022/03/08 04:19:17;;;;;;;11.63;8.30;;;;;;;0.01;60.29;102159.56;5023934;28;20104;-69
2022/03/08 04:21:42;;;;;;;15.53;8.83;;;;;;;-0.27;60.59;102124.28;5027574;28;20025;-70
2022/03/08 04:24:07;;;;;;;12.47;8.40;;;;;;;-0.13;60.82;102152.34;5029433;28;20104;-70
2022/03/08 04:26:33;;;;;;;13.47;8.43;;;;;;;-0.07;60.96;102165.97;5029686;28;20017;-69
2022/03/08 04:28:58;;;;;;;14.30;8.57;;;;;;;-0.10;61.02;102163.50;5028005;28;20032;-69
2022/03/08 04:31:23;;;;;;;14.30;8.80;;;;;;;-0.12;61.40;102162.72;5029506;28;20052;-70
2022/03/08 04:33:48;;;;;;;13.00;8.33;;;;;;;-0.16;61.34;102155.09;5029666;28;20758;-69
2022/03/08 04:36:14;;;;;;;12.87;8.23;;;;;;;-0.21;61.12;102152.69;5029233;28;20037;-69
2022/03/08 04:38:39;;;;;;;13.97;9.00;;;;;;;-0.17;61.47;102163.84;5028900;28;20516;-69
2022/03/08 04:41:07;;;;;;;12.13;8.53;;;;;;;-0.16;61.58;102165.53;5029558;28;20029;-69
2022/03/08 04:43:33;;;;;;;13.57;8.63;;;;;;;-0.15;61.50;102168.09;5029851;28;20389;-69
2022/03/08 04:45:58;;;;;;;10.90;8.43;;;;;;;-0.13;61.54;102176.69;5029749;28;20021;-69
2022/03/08 04:48:24;;;;;;;12.23;8.40;;;;;;;-0.15;61.58;102172.47;5029326;28;20380;-70
2022/03/08 04:50:49;;;;;;;16.20;8.73;;;;;;;-0.14;61.58;102167.16;5028106;28;20172;-70
2022/03/08 04:53:14;;;;;;;12.40;8.53;;;;;;;-0.21;61.56;102160.53;5028796;28;20040;-70
2022/03/08 04:55:40;;;;;;;11.83;8.20;;;;;;;-0.27;61.70;102150.38;5030260;28;20029;-69
2022/03/08 04:58:05;;;;;;;14.53;8.37;;;;;;;-0.17;61.59;102163.84;5037775;28;20599;-70
2022/03/08 05:00:31;;;;;;;15.00;8.93;;;;;;;-0.20;61.79;102175.28;5030668;28;20029;-70
2022/03/08 05:02:56;;;;;;;12.57;8.70;;;;;;;-0.18;61.84;102164.75;5029567;28;20072;-69
2022/03/08 05:05:22;;;;;;;13.13;8.97;;;;;;;-0.18;61.87;102172.59;5029798;28;20017;-69
2022/03/08 05:07:47;;;;;;;12.43;9.00;;;;;;;-0.19;61.73;102160.47;5029953;28;20033;-69
2022/03/08 05:10:13;;;;;;;12.13;8.50;;;;;;;-0.17;62.02;102167.31;5025499;28;20032;-69
2022/03/08 05:12:39;;;;;;;14.33;8.70;;;;;;;-0.15;61.87;102165.47;5027090;28;20086;-69
2022/03/08 05:15:05;;;;;;;13.63;9.13;;;;;;;-0.15;61.85;102162.84;5025493;28;20025;-70
2022/03/08 05:17:31;;;;;;;14.27;8.77;;;;;;;-0.24;61.82;102144.16;5029960;28;20022;-70
2022/03/08 05:19:56;;;;;;;13.87;9.17;;;;;;;-0.17;61.81;102154.25;5028690;28;20174;-69
2022/03/08 05:22:22;;;;;;;12.77;8.83;;;;;;;-0.21;61.59;102157.06;5029429;28;20025;-69
2022/03/08 05:24:47;;;;;;;12.97;8.83;;;;;;;-0.19;61.89;102152.63;5028004;28;20084;-71
2022/03/08 05:27:12;;;;;;;11.90;8.43;;;;;;;-0.22;62.03;102153.63;5028652;28;20021;-69
2022/03/08 05:29:38;;;;;;;11.30;8.40;;;;;;;-0.25;61.94;102145.09;5026960;28;20688;-69
2022/03/08 05:32:04;;;;;;;17.17;9.27;;;;;;;-0.23;61.97;102143.25;5028207;28;20040;-70
2022/03/08 05:34:30;;;;;;;12.33;8.80;;;;;;;-0.22;62.16;102153.63;5028427;28;20978;-70
2022/03/08 05:36:56;;;;;;;11.03;8.37;;;;;;;-0.25;62.19;102143.31;5029400;28;20108;-70
2022/03/08 05:39:21;;;;;;;13.00;9.33;;;;;;;-0.35;62.37;102129.81;5028122;28;20064;-68
2022/03/08 05:41:46;;;;;;;13.53;8.27;;;;;;;-0.25;62.35;102142.47;5029407;28;20025;-69
2022/03/08 05:44:12;;;;;;;14.40;8.57;;;;;;;-0.28;62.49;102142.59;5028975;28;20057;-70
2022/03/08 05:46:37;;;;;;;13.37;9.03;;;;;;;-0.34;62.63;102141.94;5029482;28;20471;-69
2022/03/08 05:49:03;;;;;;;12.63;8.67;;;;;;;-0.33;62.75;102143.63;5025514;28;20030;-70
2022/03/08 05:51:28;;;;;;;12.80;8.67;;;;;;;-0.44;62.80;102124.16;5029185;28;20401;-69
2022/03/08 05:53:53;;;;;;;15.27;9.47;;;;;;;-0.38;62.95;102144.75;5027379;28;20075;-69
2022/03/08 05:56:19;;;;;;;13.93;9.40;;;;;;;-0.38;62.99;102139.53;5029297;28;20026;-70
2022/03/08 05:58:44;;;;;;;13.70;9.53;;;;;;;-0.43;63.18;102129.31;5026478;28;20022;-69
2022/03/08 06:01:10;;;;;;;13.07;9.20;;;;;;;-0.48;63.09;102130.44;5029204;28;20033;-69
2022/03/08 06:03:35;;;;;;;15.00;9.27;;;;;;;-0.47;63.28;102125.16;5026208;28;20021;-69
2022/03/08 06:06:00;;;;;;;14.73;9.57;;;;;;;-0.54;63.49;102117.66;5029032;28;20477;-69
2022/03/08 06:08:25;;;;;;;14.33;9.90;;;;;;;-0.53;63.52;102114.16;5028436;28;20033;-69
2022/03/08 06:10:51;;;;;;;12.60;9.03;;;;;;;-0.52;63.50;102116.69;5028166;28;20025;-69
2022/03/08 06:13:16;;;;;;;15.10;9.07;;;;;;;-0.44;63.56;102134.59;5028505;28;20048;-69
2022/03/08 06:15:41;;;;;;;15.63;9.93;;;;;;;-0.44;63.81;102138.06;5028923;28;20029;-69
2022/03/08 06:18:07;;;;;;;13.73;9.70;;;;;;;-0.43;63.84;102136.28;5031018;28;20094;-70
2022/03/08 06:20:32;;;;;;;13.43;9.67;;;;;;;-0.42;63.96;102141.44;5035216;28;20029;-69
2022/03/08 06:22:57;;;;;;;14.63;9.87;;;;;;;-0.44;64.16;102138.06;5027990;28;20029;-69
2022/03/08 06:25:23;;;;;;;15.23;10.23;;;;;;;-0.38;64.03;102137.78;5028559;28;20540;-70
2022/03/08 06:27:48;;;;;;;17.67;10.80;;;;;;;-0.33;64.02;102138.41;5022721;28;20075;-69
2022/03/08 06:30:13;;;;;;;13.70;9.93;;;;;;;-0.27;64.13;102139.09;5022812;28;20037;-69
2022/03/08 06:32:39;;;;;;;16.30;9.90;;;;;;;-0.17;63.92;102140.34;5026529;28;20049;-70
2022/03/08 06:35:04;;;;;;;15.17;10.23;;;;;;;-0.17;63.82;102138.59;5026787;28;20034;-69
2022/03/08 06:37:30;;;;;;;16.70;10.50;;;;;;;-0.08;63.82;102140.78;5026383;28;20030;-70
2022/03/08 06:39:55;;;;;;;14.10;9.73;;;;;;;-0.04;63.88;102146.69;5027271;28;20072;-69
2022/03/08 06:42:20;;;;;;;13.73;9.10;;;;;;;0.05;63.56;102133.22;5026631;28;20063;-69
2022/03/08 06:44:46;;;;;;;20.67;10.27;;;;;;;0.06;63.45;102127.09;5026860;28;20258;-69
2022/03/08 06:47:12;;;;;;;18.03;11.10;;;;;;;0.21;63.39;102136.81;5027337;28;20474;-68
2022/03/08 06:49:39;;;;;;;16.50;9.83;;;;;;;0.25;63.17;102135.75;5026748;28;20037;-69
2022/03/08 06:52:05;;;;;;;15.70;9.97;;;;;;;0.42;62.97;102136.72;5025490;28;20451;-69
2022/03/08 06:54:30;;;;;;;16.27;10.40;;;;;;;0.52;62.69;102140.56;5026585;28;20441;-69
2022/03/08 06:56:58;;;;;;;14.67;9.33;;;;;;;0.59;62.62;102137.63;5026882;28;20132;-69
2022/03/08 06:59:24;;;;;;;16.50;9.77;;;;;;;0.71;62.36;102154.44;5025625;28;20030;-68
2022/03/08 07:01:49;;;;;;;17.30;10.07;;;;;;;0.80;62.22;102146.16;5027292;28;20029;-68
2022/03/08 07:04:14;;;;;;;15.27;9.57;;;;;;;0.86;61.73;102142.38;5025670;28;20037;-69
2022/03/08 07:06:40;;;;;;;13.20;9.17;;;;;;;0.92;61.39;102137.72;5026028;28;20033;-68
2022/03/08 07:09:06;;;;;;;17.63;10.63;;;;;;;1.04;61.26;102135.41;5025075;28;20025;-68
2022/03/08 07:11:31;;;;;;;18.30;10.30;;;;;;;1.11;61.06;102134.16;5025404;28;20029;-68
2022/03/08 07:13:56;;;;;;;14.10;8.97;;;;;;;1.16;60.77;102129.56;5026786;28;20405;-69
2022/03/08 07:16:22;;;;;;;18.53;10.23;;;;;;;1.27;60.61;102137.69;5026620;28;20036;-68
2022/03/08 07:18:48;;;;;;;13.37;9.30;;;;;;;1.36;60.02;102145.06;5026422;28;20033;-68
2022/03/08 07:21:13;;;;;;;16.87;10.03;;;;;;;1.47;60.13;102155.00;5024499;28;20456;-68
2022/03/08 07:23:39;;;;;;;19.13;10.87;;;;;;;1.57;59.65;102157.97;5027019;28;20033;-68
2022/03/08 07:26:04;;;;;;;17.93;10.10;;;;;;;1.60;59.82;102142.09;5026013;28;20025;-68
2022/03/08 07:28:30;;;;;;;14.77;9.17;;;;;;;1.74;59.24;102152.69;5025393;28;20025;-68
2022/03/08 07:30:55;;;;;;;13.87;9.43;;;;;;;1.81;58.87;102139.19;5022280;28;20037;-68
2022/03/08 07:33:20;;;;;;;16.40;9.83;;;;;;;1.98;58.71;102148.75;5025418;28;20037;-68
2022/03/08 07:35:45;;;;;;;14.73;8.70;;;;;;;2.06;58.33;102138.72;5025982;28;20061;-68
2022/03/08 07:38:11;;;;;;;13.30;8.93;;;;;;;2.22;57.79;102143.94;5026644;28;20041;-68
2022/03/08 07:40:36;;;;;;;13.13;9.47;;;;;;;2.32;57.90;102155.63;5026527;28;20036;-68
2022/03/08 07:43:02;;;;;;;14.47;9.10;;;;;;;2.35;57.50;102144.13;5026839;28;20537;-69
2022/03/08 07:45:28;;;;;;;11.97;9.10;;;;;;;2.39;57.15;102141.25;5027552;28;20033;-68
2022/03/08 07:47:54;;;;;;;14.93;9.37;;;;;;;2.45;57.06;102135.66;5026863;28;20112;-68
2022/03/08 07:50:19;;;;;;;15.37;9.63;;;;;;;2.58;56.99;102124.44;5026281;28;20037;-69
2022/03/08 07:52:44;;;;;;;15.03;10.00;;;;;;;2.68;56.78;102126.47;5027139;28;20056;-68
2022/03/08 07:55:10;;;;;;;15.03;9.37;;;;;;;2.77;56.55;102125.09;5025118;28;20452;-68
2022/03/08 07:57:35;;;;;;;16.53;9.30;;;;;;;2.79;56.41;102125.84;5026794;28;20021;-68
2022/03/08 08:00:02;;;;;;;12.20;8.80;;;;;;;2.82;55.92;102130.06;5026283;28;20026;-68
2022/03/08 08:02:27;;;;;;;12.07;8.63;;;;;;;2.83;55.83;102131.75;5027010;28;20401;-68
2022/03/08 08:04:53;;;;;;;13.77;9.00;;;;;;;2.88;55.82;102130.56;5025869;28;20047;-69
2022/03/08 08:07:18;;;;;;;10.40;7.87;;;;;;;2.94;55.59;102153.00;5026862;28;20037;-68
2022/03/08 08:09:45;;;;;;;18.73;9.00;;;;;;;2.86;55.29;102113.22;5025951;28;20480;-69
2022/03/08 08:12:10;;;;;;;11.13;8.57;;;;;;;2.99;55.07;102132.56;5027121;28;20076;-68
2022/03/08 08:14:35;;;;;;;14.43;9.10;;;;;;;3.06;54.78;102133.91;5026662;28;20033;-68
2022/03/08 08:17:01;;;;;;;16.00;9.70;;;;;;;3.18;54.70;102130.56;5026878;28;20316;-68
2022/03/08 08:19:26;;;;;;;13.47;8.70;;;;;;;3.19;54.54;102142.75;5022198;28;20037;-68
2022/03/08 08:21:51;;;;;;;15.10;8.90;;;;;;;3.28;54.20;102138.72;5026938;28;20477;-68
2022/03/08 08:24:16;;;;;;;12.93;8.57;;;;;;;3.35;54.05;102151.38;5026555;28;20024;-68
2022/03/08 08:26:42;;;;;;;13.30;8.43;;;;;;;3.38;53.91;102150.34;5027004;28;20033;-68
2022/03/08 08:29:07;;;;;;;13.67;8.87;;;;;;;3.35;53.68;102146.13;5025608;28;20167;-68
2022/03/08 08:31:32;;;;;;;13.90;8.97;;;;;;;3.44;53.68;102152.59;5026881;28;20033;-68
2022/03/08 08:33:58;;;;;;;12.90;8.50;;;;;;;3.43;53.64;102145.66;5026234;28;20025;-69
2022/03/08 08:36:23;;;;;;;11.73;7.67;;;;;;;3.49;53.36;102153.19;5026519;28;20028;-68
2022/03/08 08:38:48;;;;;;;11.47;7.97;;;;;;;3.56;53.34;102153.66;5025724;28;20133;-68
2022/03/08 08:41:14;;;;;;;11.57;8.00;;;;;;;3.63;53.12;102152.34;5026362;28;20083;-68
2022/03/08 08:43:39;;;;;;;11.67;7.90;;;;;;;3.68;52.95;102139.78;5026664;28;20033;-68
2022/03/08 08:46:04;;;;;;;11.00;8.07;;;;;;;3.81;53.09;102130.22;5026362;28;20448;-68
2022/03/08 08:48:30;;;;;;;13.83;8.50;;;;;;;3.95;52.80;102150.38;5026750;28;20607;-68
2022/03/08 08:50:55;;;;;;;11.70;8.17;;;;;;;4.03;52.61;102140.19;5026067;28;20451;-68
2022/03/08 08:53:22;;;;;;;8.80;7.30;;;;;;;4.07;52.47;102146.13;5026763;28;20025;-68
2022/03/08 08:55:48;;;;;;;9.53;6.87;;;;;;;4.14;52.12;102144.81;5026238;28;20037;-68
2022/03/08 08:58:14;;;;;;;11.77;7.80;;;;;;;4.17;51.85;102137.56;5026533;28;20140;-68
2022/03/08 09:00:39;;;;;;;12.50;7.33;;;;;;;4.21;51.65;102149.56;5025526;28;20048;-68
2022/03/08 09:03:09;;;;;;;11.23;7.67;;;;;;;4.17;51.09;102119.16;5026485;28;20045;-69
2022/03/08 09:05:34;;;;;;;12.63;8.10;;;;;;;4.37;51.33;102111.78;5025693;28;20017;-69
2022/03/08 09:08:00;;;;;;;9.87;6.77;;;;;;;4.42;51.05;102136.00;5036083;28;20018;-69
2022/03/08 09:10:25;;;;;;;11.40;7.90;;;;;;;4.45;51.10;102136.66;5030689;28;20033;-68
2022/03/08 09:12:51;;;;;;;11.00;7.57;;;;;;;4.58;50.80;102129.63;5029209;28;20417;-68
2022/03/08 09:15:18;;;;;;;8.20;6.90;;;;;;;4.73;50.52;102119.06;5029645;28;20026;-69
2022/03/08 09:17:44;;;;;;;11.70;7.33;;;;;;;4.80;50.37;102123.81;5028702;28;20022;-69
2022/03/08 09:20:10;;;;;;;8.93;6.47;;;;;;;4.93;50.09;102106.28;5028859;28;20036;-69
2022/03/08 09:22:35;;;;;;;13.50;7.37;;;;;;;4.97;49.93;102113.00;5034218;28;20045;-69
2022/03/08 09:25:01;;;;;;;13.00;7.53;;;;;;;4.98;49.67;102104.16;5029893;28;20112;-69
2022/03/08 09:27:26;;;;;;;9.80;7.20;;;;;;;5.13;49.83;102101.44;5029002;28;20053;-69
2022/03/08 09:29:51;;;;;;;11.17;6.60;;;;;;;5.15;48.94;102099.53;5028899;28;20083;-68
2022/03/08 09:32:17;;;;;;;9.50;6.90;;;;;;;5.27;48.84;102089.03;5027361;28;20239;-69
2022/03/08 09:34:43;;;;;;;10.53;7.10;;;;;;;5.29;48.68;102102.06;5029344;28;20056;-68
2022/03/08 09:37:09;;;;;;;10.67;7.17;;;;;;;5.28;48.24;102082.81;5029037;28;20071;-69
2022/03/08 09:39:35;;;;;;;13.03;7.40;;;;;;;5.36;48.29;102103.34;5033389;28;20477;-68
2022/03/08 09:42:02;;;;;;;9.53;7.13;;;;;;;5.48;48.30;102084.03;5028960;28;20568;-69
2022/03/08 09:44:29;;;;;;;9.33;6.53;;;;;;;5.52;47.72;102080.25;5028847;28;20456;-69
2022/03/08 09:46:54;;;;;;;10.80;6.53;;;;;;;5.58;47.35;102086.88;5028224;28;20152;-69
2022/03/08 09:49:19;;;;;;;13.53;6.73;;;;;;;5.62;47.08;102074.34;5028065;28;20460;-68
2022/03/08 09:51:46;;;;;;;22.90;7.10;;;;;;;5.78;46.78;102078.44;5029241;28;20036;-68
2022/03/08 09:54:11;;;;;;;13.47;7.30;;;;;;;5.81;46.79;102083.47;5027458;28;20052;-68
2022/03/08 09:56:37;;;;;;;12.70;7.73;;;;;;;5.90;46.85;102077.56;5029692;28;20025;-68
2022/03/08 09:59:02;;;;;;;13.73;7.57;;;;;;;6.01;46.67;102074.16;5028066;28;20052;-68
2022/03/08 10:01:28;;;;;;;11.00;8.07;;;;;;;6.10;46.44;102073.50;5029510;28;20501;-69
2022/03/08 10:03:53;;;;;;;13.73;8.53;;;;;;;6.18;46.38;102084.34;5028584;28;20022;-69
2022/03/08 10:06:19;;;;;;;11.23;7.73;;;;;;;6.26;46.02;102062.66;5028502;28;20083;-69
2022/03/08 10:08:45;;;;;;;13.40;7.80;;;;;;;6.46;45.85;102074.41;5027297;28;20037;-69
2022/03/08 10:11:14;;;;;;;12.40;7.43;;;;;;;6.49;45.32;102066.25;5028480;28;20049;-69
2022/03/08 10:13:42;;;;;;;9.95;7.38;;;;;;;6.56;45.23;102083.31;5029517;28;20025;-69
2022/03/08 10:16:28;;;;;;;11.87;6.90;;;;;;;6.55;45.07;102081.63;5027758;28;20033;-69
2022/03/08 10:18:59;;;;;;;10.57;7.17;;;;;;;6.49;44.35;102061.81;5022827;28;20021;-69
2022/03/08 10:21:43;;;;;;;10.97;6.13;;;;;;;6.60;44.13;102062.81;5028541;28;20488;-69
2022/03/08 10:24:15;;;;;;;11.07;6.13;;;;;;;6.77;44.04;102062.38;5028145;28;20108;-69
2022/03/08 10:27:02;;;;;;;11.37;6.90;;;;;;;6.63;43.39;102073.13;5028525;28;20017;-69
2022/03/08 10:29:31;;;;;;;10.73;6.40;;;;;;;6.70;43.29;102063.81;5027109;28;20044;-68
2022/03/08 10:32:16;;;;;;;11.20;6.82;;;;;;;6.79;43.50;102056.03;5028551;28;20472;-68
2022/03/08 10:34:42;;;;;;;9.37;6.17;;;;;;;6.95;43.51;102054.88;5027563;28;20029;-68
2022/03/08 10:37:14;;;;;;;9.53;6.27;;;;;;;7.04;43.18;102059.44;5027987;28;20051;-68
2022/03/08 10:39:53;;;;;;;8.93;5.80;;;;;;;7.02;42.46;102046.34;5026627;28;20091;-69
2022/03/08 10:42:26;;;;;;;13.73;6.30;;;;;;;7.01;42.12;102062.31;5026522;28;20056;-69
2022/03/08 10:45:01;;;;;;;12.10;5.60;;;;;;;6.98;41.66;102065.22;5022747;28;20032;-69
2022/03/08 10:47:26;;;;;;;11.93;5.83;;;;;;;6.97;41.50;102045.03;5024655;28;20120;-68
2022/03/08 10:49:53;;;;;;;6.30;5.43;;;;;;;7.01;41.21;102042.03;5025706;28;20105;-68
2022/03/08 10:52:27;;;;;;;9.33;5.57;;;;;;;6.98;40.94;102039.63;5023113;28;20146;-69
2022/03/08 10:54:52;;;;;;;11.57;5.73;;;;;;;7.11;41.28;102050.94;5025695;28;20071;-68
2022/03/08 10:57:18;;;;;;;8.00;5.70;;;;;;;7.15;40.70;102039.16;5025257;28;20042;-69
2022/03/08 10:59:56;;;;;;;7.10;5.30;;;;;;;7.28;40.70;102028.50;5025984;28;20028;-68
2022/03/08 11:02:23;;;;;;;8.70;5.72;;;;;;;7.26;40.85;102030.41;5023423;28;20512;-69
2022/03/08 11:05:06;;;;;;;10.43;5.90;;;;;;;7.37;40.89;102019.00;5026741;28;20025;-69
2022/03/08 11:07:31;;;;;;;11.37;5.70;;;;;;;7.23;39.78;102049.16;5025346;28;20029;-69
2022/03/08 11:09:57;;;;;;;8.47;6.03;;;;;;;7.22;40.43;102031.59;5025615;28;20382;-68
2022/03/08 11:12:22;;;;;;;10.50;5.97;;;;;;;7.25;40.08;102025.25;5027270;28;20029;-68
2022/03/08 11:14:47;;;;;;;7.50;5.70;;;;;;;7.14;39.58;102032.19;5026143;28;20127;-69
2022/03/08 11:17:13;;;;;;;11.93;5.77;;;;;;;7.20;39.65;102024.75;5026644;28;20405;-69
2022/03/08 11:19:39;;;;;;;7.83;5.70;;;;;;;7.24;40.14;102024.41;5025972;28;20109;-69